KLZU

Gwinnett County - Briscoe Field Airport

Lawrenceville, Georgia, USA
METAR KLZU 191456Z 28008KT 250V310 10SM CLR 03/M14 A3029 RMK AO2 SLP264 T00331139 51006 $
Observed Flight Rules
Jan-19 @ 14:56 UTC (32 minutes ago) Visual Flight Rules
Wind Visibility Clouds
280° at 8 knots 10 miles
  • Clear skies
Temperatures Readings
Current 3°C / 37°F
Dewpoint -14°C / 7°F
Humidity 28%
Altimeter 30.29" Hg
Pressure 1026.4 hPa
Elevation 323
METAR KLZU 191456Z 28008KT 250V310 10SM CLR 03/M14 A3029 RMK AO2 SLP264 T00331139 51006 $
Observed Flight Rules
Jan-19 @ 14:56 UTC
(32 minutes ago)
VFR
Wind Visibility
280° at 8 knots 10 miles
Clouds
  • Clear skies
Temperature Dewpoint
3°C / 37°F -14°C / 7°F
Humidity Altimeter Pressure
28% 30.29" Hg 1026.4 hPa